createdAt,value
2023-12-07T00:04:17.801Z,-1.56
2023-12-07T00:09:23.680Z,-1.56
2023-12-07T00:14:29.569Z,-1.60
2023-12-07T00:19:35.473Z,-1.61
2023-12-07T00:24:41.504Z,-1.58
2023-12-07T00:29:47.599Z,-1.57
2023-12-07T00:34:53.467Z,-1.59
2023-12-07T00:39:59.623Z,-1.62
2023-12-07T00:45:06.732Z,-1.61
2023-12-07T00:50:15.810Z,-1.57
2023-12-07T00:55:21.937Z,-1.55
2023-12-07T01:00:27.999Z,-1.50
2023-12-07T01:05:34.426Z,-1.46
2023-12-07T01:10:40.725Z,-1.48
2023-12-07T01:15:46.867Z,-1.44
2023-12-07T01:20:52.772Z,-1.39
2023-12-07T01:25:59.038Z,-1.37
2023-12-07T01:31:05.280Z,-1.36
2023-12-07T01:36:12.091Z,-1.31
2023-12-07T01:41:18.031Z,-1.32
2023-12-07T01:46:24.415Z,-1.34
2023-12-07T01:51:31.139Z,-1.40
2023-12-07T01:56:37.401Z,-1.41
2023-12-07T02:01:44.288Z,-1.37
2023-12-07T02:06:50.107Z,-1.34
2023-12-07T02:11:55.922Z,-1.35
2023-12-07T02:17:09.694Z,-1.34
2023-12-07T02:22:23.838Z,-1.31
2023-12-07T02:27:38.212Z,-1.29
2023-12-07T02:32:46.449Z,-1.30
2023-12-07T02:37:53.304Z,-1.24
2023-12-07T02:43:00.661Z,-1.20
2023-12-07T02:48:08.168Z,-1.26
2023-12-07T02:53:14.518Z,-1.27
2023-12-07T02:58:20.490Z,-1.25
2023-12-07T03:03:26.376Z,-1.17
2023-12-07T03:08:32.736Z,-1.15
2023-12-07T03:13:38.847Z,-1.16
2023-12-07T03:18:44.739Z,-1.18
2023-12-07T03:23:51.041Z,-1.19
2023-12-07T03:28:56.868Z,-1.15
2023-12-07T03:34:03.111Z,-1.12
2023-12-07T03:39:09.436Z,-1.16
2023-12-07T03:44:15.532Z,-1.19
2023-12-07T03:49:21.542Z,-1.16
2023-12-07T03:54:27.289Z,-1.15
2023-12-07T03:59:33.905Z,-1.14
2023-12-07T04:04:40.143Z,-1.17
2023-12-07T04:09:46.251Z,-1.14
2023-12-07T04:14:52.974Z,-1.10
2023-12-07T04:19:58.977Z,-1.10
2023-12-07T04:25:06.298Z,-1.11
2023-12-07T04:30:14.437Z,-1.13
2023-12-07T04:35:20.260Z,-1.09
2023-12-07T04:40:27.182Z,-1.07
2023-12-07T04:45:33.116Z,-1.03
2023-12-07T04:50:39.090Z,-1.05
2023-12-07T04:55:49.772Z,-1.09
2023-12-07T05:00:56.719Z,-1.15
2023-12-07T05:06:02.638Z,-1.17
2023-12-07T05:11:09.107Z,-1.10
2023-12-07T05:16:15.024Z,-1.04
2023-12-07T05:21:21.288Z,-1.06
2023-12-07T05:26:27.658Z,-1.11
2023-12-07T05:31:34.212Z,-1.11
2023-12-07T05:36:40.067Z,-1.08
2023-12-07T05:41:47.995Z,-1.04
2023-12-07T05:46:53.923Z,-1.06
2023-12-07T05:51:59.962Z,-1.07
2023-12-07T05:57:06.905Z,-1.03
2023-12-07T06:02:12.909Z,-1.03
2023-12-07T06:07:18.963Z,-1.04
2023-12-07T06:12:26.070Z,-1.09
2023-12-07T06:17:34.702Z,-1.06
2023-12-07T06:22:40.800Z,-1.01
2023-12-07T06:27:47.258Z,-0.93
2023-12-07T06:32:53.363Z,-0.90
2023-12-07T06:37:59.384Z,-0.94
2023-12-07T06:43:05.250Z,-0.94
2023-12-07T06:48:11.153Z,-0.86
2023-12-07T06:53:19.778Z,-0.82
2023-12-07T06:58:26.078Z,-0.82
2023-12-07T07:03:32.150Z,-0.81
2023-12-07T07:08:38.019Z,-0.79
2023-12-07T07:13:44.348Z,-0.73
2023-12-07T07:18:50.463Z,-0.59
2023-12-07T07:23:57.601Z,-0.53
2023-12-07T07:29:04.813Z,-0.47
2023-12-07T07:34:11.138Z,-0.48
2023-12-07T07:39:17.247Z,-0.50
2023-12-07T07:44:23.061Z,-0.46
2023-12-07T07:49:29.256Z,-0.39
2023-12-07T07:54:35.035Z,-0.30
2023-12-07T07:59:40.862Z,-0.25
2023-12-07T08:04:47.044Z,-0.15
2023-12-07T08:09:52.926Z,0.00
2023-12-07T08:14:58.642Z,0.06
2023-12-07T08:20:04.833Z,0.11
2023-12-07T08:25:12.353Z,0.25
2023-12-07T08:30:19.968Z,0.41
2023-12-07T08:35:25.835Z,0.47
2023-12-07T08:40:31.971Z,0.54
2023-12-07T08:45:39.791Z,0.64
2023-12-07T08:50:45.916Z,0.68
2023-12-07T08:55:52.611Z,0.71
2023-12-07T09:00:58.604Z,0.69
2023-12-07T09:06:06.427Z,0.69
2023-12-07T09:11:12.355Z,0.78
2023-12-07T09:16:18.330Z,0.85
2023-12-07T09:21:24.446Z,0.80
2023-12-07T09:26:30.590Z,0.81
2023-12-07T09:31:36.402Z,0.85
2023-12-07T09:36:42.324Z,0.85
2023-12-07T09:41:48.893Z,0.80
2023-12-07T09:46:55.936Z,0.77
2023-12-07T09:52:02.201Z,0.77
2023-12-07T09:57:10.534Z,0.87
2023-12-07T10:02:17.412Z,0.84
2023-12-07T10:07:39.015Z,0.86
2023-12-07T10:12:52.209Z,0.86
2023-12-07T10:18:01.589Z,0.93
2023-12-07T10:23:09.393Z,0.93
2023-12-07T10:28:19.182Z,0.85
2023-12-07T10:33:25.031Z,0.83
2023-12-07T10:38:33.711Z,0.83
2023-12-07T10:43:43.920Z,0.87
2023-12-07T10:48:52.653Z,0.83
2023-12-07T10:54:04.359Z,0.86
2023-12-07T10:59:23.710Z,0.92
2023-12-07T11:04:38.291Z,0.97
2023-12-07T11:09:49.130Z,0.92
2023-12-07T11:14:53.762Z,0.90
2023-12-07T11:20:00.313Z,0.93
2023-12-07T11:25:09.189Z,0.95
2023-12-07T11:30:17.359Z,0.92
2023-12-07T11:35:23.240Z,0.86
2023-12-07T11:40:30.305Z,0.80
2023-12-07T11:45:50.131Z,0.83
2023-12-07T11:51:01.595Z,0.87
2023-12-07T11:56:11.138Z,0.84
2023-12-07T12:01:19.528Z,0.74
2023-12-07T12:06:27.386Z,0.68
2023-12-07T12:11:33.523Z,0.65
2023-12-07T12:16:39.916Z,0.59
2023-12-07T12:21:45.713Z,0.54
2023-12-07T12:26:52.179Z,0.47
2023-12-07T12:31:57.941Z,0.47
2023-12-07T12:37:07.299Z,0.44
2023-12-07T12:42:13.993Z,0.40
2023-12-07T12:47:20.934Z,0.33
2023-12-07T12:52:29.594Z,0.29
2023-12-07T12:57:37.629Z,0.21
2023-12-07T13:02:43.502Z,0.18
2023-12-07T13:07:55.430Z,0.13
2023-12-07T13:13:08.573Z,0.10
2023-12-07T13:18:14.470Z,0.08
2023-12-07T13:23:21.742Z,0.10
2023-12-07T13:28:27.527Z,0.01
2023-12-07T13:33:38.938Z,-0.10
2023-12-07T13:38:49.169Z,-0.16
2023-12-07T13:43:55.257Z,-0.18
2023-12-07T13:49:01.182Z,-0.22
2023-12-07T13:54:23.281Z,-0.22
2023-12-07T13:59:38.669Z,-0.24
2023-12-07T14:04:45.159Z,-0.28
2023-12-07T14:09:57.935Z,-0.31
2023-12-07T14:15:08.962Z,-0.37
2023-12-07T14:20:28.163Z,-0.44
2023-12-07T14:25:47.790Z,-0.52
2023-12-07T14:30:57.558Z,-0.50
2023-12-07T14:36:05.372Z,-0.57
2023-12-07T14:41:13.811Z,-0.63
2023-12-07T14:46:22.446Z,-0.69
2023-12-07T14:51:30.626Z,-0.68
2023-12-07T14:56:36.979Z,-0.64
2023-12-07T15:01:43.544Z,-0.65
2023-12-07T15:06:49.636Z,-0.72
2023-12-07T15:11:55.907Z,-0.73
2023-12-07T15:17:02.288Z,-0.70
2023-12-07T15:22:09.250Z,-0.70
2023-12-07T15:27:15.378Z,-0.71
2023-12-07T15:32:21.422Z,-0.74
2023-12-07T15:37:27.528Z,-0.81
2023-12-07T15:42:33.777Z,-0.83
2023-12-07T15:47:39.624Z,-0.80
2023-12-07T15:52:46.274Z,-0.81
2023-12-07T15:57:52.202Z,-0.83
2023-12-07T16:02:58.483Z,-0.87
2023-12-07T16:08:04.759Z,-0.92
2023-12-07T16:13:12.232Z,-0.95
2023-12-07T16:18:18.847Z,-0.92
2023-12-07T16:23:25.253Z,-0.93
2023-12-07T16:28:31.990Z,-0.96
2023-12-07T16:33:38.674Z,-1.05
2023-12-07T16:38:45.606Z,-1.06
2023-12-07T16:43:51.821Z,-1.03
2023-12-07T16:48:57.870Z,-1.05
2023-12-07T16:54:04.628Z,-1.09
2023-12-07T16:59:10.751Z,-1.15
2023-12-07T17:04:17.008Z,-1.18
2023-12-07T17:09:23.705Z,-1.14
2023-12-07T17:14:32.172Z,-1.10
2023-12-07T17:23:12.243Z,-1.13
2023-12-07T17:28:18.073Z,-1.21
2023-12-07T17:33:27.386Z,-1.22
2023-12-07T17:38:33.593Z,-1.17
2023-12-07T17:43:40.025Z,-1.14
2023-12-07T17:48:49.358Z,-1.19
2023-12-07T17:53:55.515Z,-1.27
2023-12-07T17:59:01.862Z,-1.25
2023-12-07T18:04:08.186Z,-1.28
2023-12-07T18:09:17.036Z,-1.32
2023-12-07T18:14:23.194Z,-1.40
2023-12-07T18:19:29.072Z,-1.45
2023-12-07T18:24:35.090Z,-1.47
2023-12-07T18:29:41.183Z,-1.45
2023-12-07T18:34:47.384Z,-1.46
2023-12-07T18:39:55.191Z,-1.48
2023-12-07T18:45:02.541Z,-1.52
2023-12-07T18:50:10.105Z,-1.58
2023-12-07T18:55:16.678Z,-1.58
2023-12-07T19:00:24.306Z,-1.54
2023-12-07T19:05:30.860Z,-1.55
2023-12-07T19:10:36.808Z,-1.58
2023-12-07T19:15:43.084Z,-1.63
2023-12-07T19:20:49.642Z,-1.67
2023-12-07T19:25:55.656Z,-1.67
2023-12-07T19:31:01.779Z,-1.66
2023-12-07T19:36:08.833Z,-1.67
2023-12-07T19:41:15.070Z,-1.70
2023-12-07T19:46:22.558Z,-1.69
2023-12-07T19:51:32.044Z,-1.64
2023-12-07T19:56:38.157Z,-1.68
2023-12-07T20:01:44.159Z,-1.71
2023-12-07T20:06:50.222Z,-1.80
2023-12-07T20:11:56.227Z,-1.85
2023-12-07T20:17:02.214Z,-1.90
2023-12-07T20:22:11.263Z,-1.94
2023-12-07T20:27:20.639Z,-2.02
2023-12-07T20:32:31.462Z,-2.01
2023-12-07T20:37:39.683Z,-2.04
2023-12-07T20:42:45.556Z,-2.12
2023-12-07T20:47:51.570Z,-2.24
2023-12-07T20:52:57.625Z,-2.30
2023-12-07T20:58:03.703Z,-2.32
2023-12-07T21:03:09.523Z,-2.41
2023-12-07T21:08:15.954Z,-2.52
2023-12-07T21:13:21.946Z,-2.52
2023-12-07T21:18:29.596Z,-2.52
2023-12-07T21:23:37.188Z,-2.58
2023-12-07T21:28:43.295Z,-2.55
2023-12-07T21:33:49.670Z,-2.52
2023-12-07T21:38:55.870Z,-2.57
2023-12-07T21:44:01.912Z,-2.62
2023-12-07T21:49:08.147Z,-2.65
2023-12-07T21:54:14.506Z,-2.70
2023-12-07T21:59:20.848Z,-2.79
2023-12-07T22:04:27.234Z,-2.91
2023-12-07T22:09:33.241Z,-3.00
2023-12-07T22:14:40.139Z,-3.07
2023-12-07T22:19:45.916Z,-3.10
2023-12-07T22:24:51.999Z,-3.12
2023-12-07T22:29:58.292Z,-3.18
2023-12-07T22:35:04.923Z,-3.26
2023-12-07T22:40:12.665Z,-3.29
2023-12-07T22:45:19.394Z,-3.37
2023-12-07T22:50:25.506Z,-3.47
2023-12-07T22:55:31.782Z,-3.50
2023-12-07T23:00:37.845Z,-3.48
2023-12-07T23:05:44.801Z,-3.51
2023-12-07T23:10:51.166Z,-3.52
2023-12-07T23:15:57.135Z,-3.57
2023-12-07T23:21:03.187Z,-3.61
2023-12-07T23:26:11.401Z,-3.61
2023-12-07T23:31:17.387Z,-3.60
2023-12-07T23:36:23.187Z,-3.62
2023-12-07T23:41:29.736Z,-3.65
2023-12-07T23:46:35.926Z,-3.61
2023-12-07T23:51:41.826Z,-3.58
2023-12-07T23:56:47.690Z,-3.62
